createdAt,value
2019-05-13T00:00:40.257Z,8.87
2019-05-13T00:03:13.614Z,8.89
2019-05-13T00:05:45.802Z,8.88
2019-05-13T00:08:21.760Z,8.86
2019-05-13T00:10:54.439Z,8.84
2019-05-13T00:13:28.235Z,8.85
2019-05-13T00:16:00.211Z,8.88
2019-05-13T00:18:33.936Z,8.79
2019-05-13T00:21:07.623Z,8.79
2019-05-13T00:23:41.063Z,8.79
2019-05-13T00:26:14.097Z,8.80
2019-05-13T00:28:47.768Z,8.78
2019-05-13T00:31:21.356Z,8.82
2019-05-13T00:33:53.341Z,8.81
2019-05-13T00:36:25.725Z,8.80
2019-05-13T00:38:57.670Z,8.80
2019-05-13T00:41:29.673Z,8.78
2019-05-13T00:44:06.018Z,8.73
2019-05-13T00:46:38.065Z,8.66
2019-05-13T00:49:09.989Z,8.60
2019-05-13T00:51:44.228Z,8.56
2019-05-13T00:54:15.735Z,8.50
2019-05-13T00:56:47.856Z,8.46
2019-05-13T00:59:21.636Z,8.46
2019-05-13T01:01:54.737Z,8.49
2019-05-13T01:04:28.493Z,8.47
2019-05-13T01:07:00.835Z,8.48
2019-05-13T01:09:34.223Z,8.47
2019-05-13T01:12:06.556Z,8.47
2019-05-13T01:14:38.507Z,8.47
2019-05-13T01:17:10.469Z,8.46
2019-05-13T01:19:43.553Z,8.43
2019-05-13T01:22:15.629Z,8.49
2019-05-13T01:24:47.577Z,8.49
2019-05-13T01:27:20.003Z,8.42
2019-05-13T01:29:54.313Z,8.40
2019-05-13T01:32:26.243Z,8.36
2019-05-13T01:34:58.207Z,8.36
2019-05-13T01:37:39.921Z,8.34
2019-05-13T01:40:05.080Z,8.30
2019-05-13T01:42:37.299Z,8.33
2019-05-13T01:45:09.288Z,8.28
2019-05-13T01:47:43.768Z,8.21
2019-05-13T01:50:15.370Z,8.19
2019-05-13T01:52:48.338Z,8.17
2019-05-13T01:55:20.442Z,8.19
2019-05-13T01:57:53.303Z,8.12
2019-05-13T02:00:25.474Z,8.02
2019-05-13T02:02:57.444Z,8.02
2019-05-13T02:05:29.465Z,7.99
2019-05-13T02:08:03.992Z,8.00
2019-05-13T02:10:54.847Z,8.01
2019-05-13T02:13:28.510Z,8.01
2019-05-13T02:16:00.698Z,7.99
2019-05-13T02:18:34.196Z,7.99
2019-05-13T02:21:06.650Z,7.96
2019-05-13T02:23:38.715Z,7.95
2019-05-13T02:26:13.439Z,7.92
2019-05-13T02:28:44.708Z,7.87
2019-05-13T02:31:25.103Z,7.87
2019-05-13T02:33:53.026Z,7.84
2019-05-13T02:36:24.009Z,7.82
2019-05-13T02:38:55.977Z,7.80
2019-05-13T02:41:28.006Z,7.77
2019-05-13T02:44:03.342Z,7.77
2019-05-13T02:46:34.255Z,7.77
2019-05-13T02:49:06.241Z,7.79
2019-05-13T02:51:38.283Z,7.78
2019-05-13T02:54:12.363Z,7.78
2019-05-13T02:56:44.286Z,7.75
2019-05-13T02:59:16.410Z,7.76
2019-05-13T03:01:48.456Z,7.79
2019-05-13T03:04:23.317Z,7.76
2019-05-13T03:06:54.448Z,7.77
2019-05-13T03:09:26.459Z,7.78
2019-05-13T03:11:58.425Z,7.80
2019-05-13T03:14:32.291Z,7.83
2019-05-13T03:17:15.780Z,7.86
2019-05-13T03:19:47.747Z,7.89
2019-05-13T03:22:22.425Z,7.87
2019-05-13T03:24:54.077Z,7.92
2019-05-13T03:27:26.010Z,7.88
2019-05-13T03:29:57.968Z,7.89
2019-05-13T03:32:37.718Z,7.88
2019-05-13T03:35:07.192Z,7.89
2019-05-13T03:37:37.890Z,7.95
2019-05-13T03:40:13.131Z,7.99
2019-05-13T03:42:46.712Z,8.03
2019-05-13T03:45:21.793Z,8.05
2019-05-13T03:47:53.633Z,8.11
2019-05-13T03:50:30.187Z,8.11
2019-05-13T03:53:02.687Z,8.14
2019-05-13T03:55:33.245Z,8.20
2019-05-13T03:58:05.398Z,8.23
2019-05-13T04:00:37.383Z,8.21
2019-05-13T04:03:09.415Z,8.24
2019-05-13T04:05:43.700Z,8.21
2019-05-13T04:08:16.110Z,8.21
2019-05-13T04:10:48.096Z,8.20
2019-05-13T04:13:23.367Z,8.21
2019-05-13T04:15:54.321Z,8.22
2019-05-13T04:18:26.260Z,8.26
2019-05-13T04:20:58.483Z,8.14
2019-05-13T04:23:32.434Z,8.09
2019-05-13T04:26:04.730Z,8.08
2019-05-13T04:28:36.709Z,8.13
2019-05-13T04:31:08.678Z,8.21
2019-05-13T04:33:42.649Z,8.18
2019-05-13T04:36:14.396Z,8.18
2019-05-13T04:38:46.361Z,8.16
2019-05-13T04:41:18.428Z,8.21
2019-05-13T04:43:54.167Z,8.25
2019-05-13T04:46:24.696Z,8.26
2019-05-13T04:48:56.656Z,8.29
2019-05-13T04:51:28.602Z,8.35
2019-05-13T04:54:02.826Z,8.42
2019-05-13T04:56:34.652Z,8.45
2019-05-13T04:59:06.869Z,8.55
2019-05-13T05:02:37.413Z,8.64
2019-05-13T05:05:12.763Z,8.71
2019-05-13T05:08:22.438Z,8.79
2019-05-13T05:11:52.929Z,8.87
2019-05-13T05:15:19.110Z,8.93
2019-05-13T05:18:53.667Z,9.08
2019-05-13T05:21:32.465Z,9.15
2019-05-13T05:24:46.324Z,9.23
2019-05-13T05:28:11.201Z,9.28
2019-05-13T05:31:32.367Z,9.35
2019-05-13T05:34:49.022Z,9.43
2019-05-13T05:38:27.897Z,9.54
2019-05-13T05:41:02.667Z,9.71
2019-05-13T05:43:37.724Z,9.94
2019-05-13T05:46:11.657Z,10.09
2019-05-13T05:48:45.074Z,10.27
2019-05-13T05:51:17.241Z,10.54
2019-05-13T05:53:51.665Z,10.76
2019-05-13T05:56:25.742Z,10.99
2019-05-13T05:59:02.786Z,11.29
2019-05-13T06:01:37.336Z,11.54
2019-05-13T06:04:08.160Z,11.58
2019-05-13T06:06:41.575Z,11.66
2019-05-13T06:09:13.597Z,11.68
2019-05-13T06:11:45.935Z,11.65
2019-05-13T06:14:21.749Z,11.65
2019-05-13T06:16:53.111Z,11.73
2019-05-13T06:19:25.152Z,11.78
2019-05-13T06:21:57.204Z,11.69
2019-05-13T06:24:31.257Z,11.60
2019-05-13T06:27:03.101Z,11.46
2019-05-13T06:29:35.369Z,11.30
2019-05-13T06:32:21.241Z,11.20
2019-05-13T06:34:41.584Z,11.22
2019-05-13T06:37:13.800Z,11.25
2019-05-13T06:39:45.745Z,11.19
2019-05-13T06:42:17.726Z,11.12
2019-05-13T06:44:51.389Z,11.12
2019-05-13T06:47:23.779Z,11.17
2019-05-13T06:49:55.743Z,11.28
2019-05-13T06:52:27.718Z,11.33
2019-05-13T06:55:02.728Z,11.42
2019-05-13T06:57:34.083Z,11.48
2019-05-13T07:00:06.848Z,11.52
2019-05-13T07:02:38.913Z,11.54
2019-05-13T07:05:12.013Z,11.52
2019-05-13T07:07:44.156Z,11.55
2019-05-13T07:10:16.247Z,11.56
2019-05-13T07:12:48.345Z,11.63
2019-05-13T07:15:22.411Z,11.69
2019-05-13T07:17:54.950Z,11.64
2019-05-13T07:20:26.948Z,11.74
2019-05-13T07:23:01.444Z,11.87
2019-05-13T07:25:32.874Z,12.01
2019-05-13T07:28:04.973Z,12.16
2019-05-13T07:30:43.029Z,12.27
2019-05-13T07:33:15.649Z,12.45
2019-05-13T07:35:47.731Z,12.71
2019-05-13T07:38:22.289Z,12.95
2019-05-13T07:41:01.736Z,13.31
2019-05-13T07:43:34.826Z,13.65
2019-05-13T07:46:06.813Z,13.83
2019-05-13T07:48:41.428Z,14.20
2019-05-13T07:51:12.462Z,14.24
2019-05-13T07:53:44.722Z,14.09
2019-05-13T07:56:16.761Z,14.21
2019-05-13T07:58:48.745Z,14.53
2019-05-13T08:01:22.085Z,14.71
2019-05-13T08:03:54.509Z,14.88
2019-05-13T08:06:26.518Z,14.93
2019-05-13T08:08:58.561Z,15.15
2019-05-13T08:11:35.354Z,15.39
2019-05-13T08:14:07.150Z,15.55
2019-05-13T08:16:39.209Z,15.66
2019-05-13T08:19:12.304Z,15.88
2019-05-13T08:21:44.642Z,16.18
2019-05-13T08:24:16.719Z,16.59
2019-05-13T08:26:52.422Z,16.88
2019-05-13T08:29:22.684Z,17.11
2019-05-13T08:31:54.696Z,17.58
2019-05-13T08:34:26.788Z,18.16
2019-05-13T08:36:58.743Z,18.57
2019-05-13T08:39:35.731Z,19.22
2019-05-13T08:42:15.244Z,20.01
2019-05-13T08:44:41.465Z,20.78
2019-05-13T08:47:12.419Z,21.36
2019-05-13T08:49:44.546Z,21.40
2019-05-13T08:52:16.575Z,21.66
2019-05-13T08:54:48.570Z,22.32
2019-05-13T08:57:22.139Z,23.11
2019-05-13T08:59:54.348Z,23.68
2019-05-13T09:02:26.384Z,23.94
2019-05-13T09:04:58.434Z,24.13
2019-05-13T09:07:32.093Z,24.57
2019-05-13T09:10:04.593Z,25.09
2019-05-13T09:12:40.145Z,24.62
2019-05-13T09:15:12.134Z,24.22
2019-05-13T09:17:44.091Z,23.75
2019-05-13T09:20:16.144Z,24.03
2019-05-13T09:22:48.087Z,23.81
2019-05-13T09:25:21.689Z,23.53
2019-05-13T09:27:53.807Z,23.29
2019-05-13T09:30:27.395Z,22.94
2019-05-13T09:33:01.841Z,22.94
2019-05-13T09:35:33.601Z,22.90
2019-05-13T09:38:05.649Z,22.81
2019-05-13T09:40:37.583Z,22.89
2019-05-13T09:43:11.593Z,23.06
2019-05-13T09:45:44.908Z,23.37
2019-05-13T09:48:16.884Z,23.54
2019-05-13T09:50:48.850Z,23.87
2019-05-13T09:53:22.276Z,23.90
2019-05-13T09:55:54.666Z,24.22
2019-05-13T09:58:29.677Z,24.15
2019-05-13T10:01:00.688Z,24.10
2019-05-13T10:06:06.362Z,23.81
2019-05-13T10:08:38.312Z,23.45
2019-05-13T10:11:12.337Z,23.32
2019-05-13T10:13:44.028Z,23.21
2019-05-13T10:16:16.067Z,23.41
2019-05-13T10:18:48.030Z,23.66
2019-05-13T10:21:21.820Z,24.09
2019-05-13T10:23:58.469Z,24.57
2019-05-13T10:26:27.918Z,24.89
2019-05-13T10:29:00.322Z,25.07
2019-05-13T10:31:32.270Z,25.46
2019-05-13T10:34:04.250Z,25.72
2019-05-13T10:36:36.311Z,25.72
2019-05-13T10:39:11.818Z,25.79
2019-05-13T10:41:43.788Z,26.01
2019-05-13T10:44:15.796Z,26.94
2019-05-13T10:46:47.796Z,27.34
2019-05-13T10:49:22.143Z,27.27
2019-05-13T10:51:53.504Z,27.26
2019-05-13T10:54:25.487Z,27.60
2019-05-13T10:56:59.722Z,27.25
2019-05-13T10:59:31.302Z,26.71
2019-05-13T11:02:03.261Z,26.28
2019-05-13T11:04:35.296Z,26.08
2019-05-13T11:07:07.269Z,26.01
2019-05-13T11:09:41.870Z,26.19
2019-05-13T11:12:13.104Z,25.56
2019-05-13T11:14:46.768Z,24.86
2019-05-13T11:17:25.679Z,24.32
2019-05-13T11:19:52.584Z,24.12
2019-05-13T11:22:24.563Z,24.06
2019-05-13T11:24:56.523Z,23.70
2019-05-13T11:27:28.544Z,23.11
2019-05-13T11:30:05.544Z,22.84
2019-05-13T11:32:37.618Z,22.61
2019-05-13T11:35:12.880Z,22.37
2019-05-13T11:37:43.982Z,22.14
2019-05-13T11:40:16.607Z,21.97
2019-05-13T11:42:48.571Z,21.84
2019-05-13T11:45:22.379Z,21.81
2019-05-13T11:47:54.660Z,21.59
2019-05-13T11:50:26.657Z,21.54
2019-05-13T11:53:06.045Z,21.49
2019-05-13T11:55:35.247Z,21.50
2019-05-13T11:58:07.264Z,21.56
2019-05-13T12:00:56.842Z,21.40
2019-05-13T12:03:32.173Z,21.07
2019-05-13T12:06:02.815Z,20.64
2019-05-13T12:08:36.648Z,20.42
2019-05-13T12:11:08.627Z,20.22
2019-05-13T12:13:42.619Z,20.07
2019-05-13T12:16:14.808Z,19.83
2019-05-13T12:18:46.806Z,19.72
2019-05-13T12:21:19.153Z,19.47
2019-05-13T12:23:52.765Z,19.07
2019-05-13T12:26:25.306Z,18.80
2019-05-13T12:28:57.335Z,18.52
2019-05-13T12:31:33.615Z,18.24
2019-05-13T12:34:03.918Z,18.07
2019-05-13T12:36:36.175Z,17.98
2019-05-13T12:39:13.969Z,17.89
2019-05-13T12:41:43.146Z,17.73
2019-05-13T12:44:15.253Z,17.57
2019-05-13T12:46:54.280Z,17.58
2019-05-13T12:49:22.046Z,17.59
2019-05-13T12:52:00.325Z,17.66
2019-05-13T12:54:27.818Z,17.71
2019-05-13T12:56:59.944Z,17.81
2019-05-13T12:59:33.480Z,17.85
2019-05-13T13:02:05.479Z,17.95
2019-05-13T13:04:37.584Z,17.97
2019-05-13T13:07:13.406Z,17.94
2019-05-13T13:09:43.795Z,17.96
2019-05-13T13:12:15.871Z,18.04
2019-05-13T13:14:47.955Z,18.12
2019-05-13T13:17:24.036Z,18.13
2019-05-13T13:19:59.847Z,17.95
2019-05-13T13:22:27.786Z,17.82
2019-05-13T13:25:04.904Z,17.82
2019-05-13T13:27:59.930Z,17.68
2019-05-13T13:30:09.225Z,17.50
2019-05-13T13:32:45.128Z,17.27
2019-05-13T13:35:15.521Z,17.06
2019-05-13T13:37:47.663Z,16.88
2019-05-13T13:40:28.346Z,16.77
2019-05-13T13:42:54.445Z,16.65
2019-05-13T13:45:26.693Z,16.50
2019-05-13T13:48:03.641Z,16.37
2019-05-13T13:50:33.561Z,16.34
2019-05-13T13:53:05.892Z,16.22
2019-05-13T13:55:37.880Z,16.11
2019-05-13T13:58:13.890Z,16.03
2019-05-13T14:00:56.046Z,15.96
2019-05-13T14:03:17.492Z,15.76
2019-05-13T14:05:53.720Z,15.48
2019-05-13T14:06:25.464Z,24.11
2019-05-13T14:08:23.800Z,15.08
2019-05-13T14:10:55.773Z,14.80
2019-05-13T14:13:27.869Z,14.57
2019-05-13T14:16:01.887Z,14.34
2019-05-13T14:18:33.739Z,14.18
2019-05-13T14:21:05.838Z,13.96
2019-05-13T14:23:38.159Z,13.83
2019-05-13T14:26:10.958Z,13.76
2019-05-13T14:28:42.950Z,13.63
2019-05-13T14:31:15.166Z,13.38
2019-05-13T14:33:47.221Z,13.22
2019-05-13T14:36:19.591Z,12.99
2019-05-13T14:38:52.642Z,12.86
2019-05-13T14:41:24.987Z,12.71
2019-05-13T14:43:57.063Z,12.56
2019-05-13T14:46:45.717Z,12.35
2019-05-13T14:49:02.820Z,12.26
2019-05-13T14:51:34.825Z,12.27
2019-05-13T14:54:06.841Z,12.32
2019-05-13T14:56:38.928Z,12.50
2019-05-13T14:59:11.845Z,12.76
2019-05-13T15:01:43.928Z,13.03
2019-05-13T15:04:15.999Z,13.19
2019-05-13T15:06:48.141Z,13.26
2019-05-13T15:09:22.323Z,13.24
2019-05-13T15:11:55.809Z,13.01
2019-05-13T15:14:27.791Z,12.85
2019-05-13T15:17:31.533Z,12.79
2019-05-13T15:19:34.099Z,12.71
2019-05-13T15:22:06.392Z,12.67
2019-05-13T15:24:41.118Z,12.59
2019-05-13T15:27:12.285Z,12.46
2019-05-13T15:29:44.317Z,12.41
2019-05-13T15:32:16.360Z,12.37
2019-05-13T15:34:51.873Z,12.45
2019-05-13T15:37:24.105Z,12.45
2019-05-13T15:39:56.144Z,12.44
2019-05-13T15:42:28.163Z,12.36
2019-05-13T15:45:01.802Z,12.31
2019-05-13T15:47:34.355Z,12.31
2019-05-13T15:50:06.834Z,12.31
2019-05-13T15:52:39.138Z,12.39
2019-05-13T15:55:12.002Z,12.46
2019-05-13T15:57:44.432Z,12.49
2019-05-13T16:00:16.407Z,12.48
2019-05-13T16:02:52.220Z,12.42
2019-05-13T16:05:24.556Z,12.41
2019-05-13T16:07:56.697Z,12.45
2019-05-13T16:10:28.756Z,12.48
2019-05-13T16:13:02.323Z,12.54
2019-05-13T16:15:34.660Z,12.55
2019-05-13T16:18:06.643Z,12.63
2019-05-13T16:20:42.596Z,12.67
2019-05-13T16:23:12.686Z,12.63
2019-05-13T16:25:44.839Z,12.36
2019-05-13T16:28:17.004Z,12.12
2019-05-13T16:30:51.416Z,12.12
2019-05-13T16:33:22.873Z,12.18
2019-05-13T16:35:54.893Z,12.28
2019-05-13T16:38:26.893Z,12.22
2019-05-13T16:40:58.847Z,12.20
2019-05-13T16:43:31.939Z,12.11
2019-05-13T16:46:07.148Z,11.85
2019-05-13T16:48:37.895Z,11.41
2019-05-13T16:51:12.388Z,11.01
2019-05-13T16:53:43.999Z,10.99
2019-05-13T16:56:26.829Z,11.01
2019-05-13T16:58:52.007Z,11.08
2019-05-13T17:01:23.694Z,11.20
2019-05-13T17:03:55.737Z,11.21
2019-05-13T17:06:27.829Z,11.21
2019-05-13T17:09:02.024Z,11.29
2019-05-13T17:11:34.234Z,11.32
2019-05-13T17:14:06.526Z,11.38
2019-05-13T17:16:38.517Z,11.42
2019-05-13T17:19:12.185Z,11.40
2019-05-13T17:21:44.438Z,11.13
2019-05-13T17:24:16.620Z,10.73
2019-05-13T17:26:48.675Z,10.38
2019-05-13T17:29:21.305Z,10.18
2019-05-13T17:31:53.347Z,10.02
2019-05-13T17:34:25.471Z,9.77
2019-05-13T17:36:57.529Z,9.49
2019-05-13T17:39:32.028Z,9.35
2019-05-13T17:42:03.738Z,9.29
2019-05-13T17:44:35.777Z,9.21
2019-05-13T17:47:08.122Z,9.13
2019-05-13T17:49:41.854Z,9.13
2019-05-13T17:52:14.332Z,9.29
2019-05-13T17:54:46.342Z,9.34
2019-05-13T17:57:18.288Z,9.31
2019-05-13T17:59:52.165Z,9.24
2019-05-13T18:02:24.000Z,9.23
2019-05-13T18:04:56.129Z,9.16
2019-05-13T18:07:28.203Z,9.15
2019-05-13T18:10:01.573Z,9.08
2019-05-13T18:12:33.842Z,9.02
2019-05-13T18:15:06.415Z,9.01
2019-05-13T18:17:38.462Z,9.07
2019-05-13T18:20:10.924Z,9.15
2019-05-13T18:22:43.159Z,9.14
2019-05-13T18:25:15.506Z,9.14
2019-05-13T18:27:47.537Z,9.23
2019-05-13T18:30:21.369Z,9.26
2019-05-13T18:32:53.413Z,9.31
2019-05-13T18:35:25.475Z,9.25
2019-05-13T18:37:57.527Z,9.26
2019-05-13T18:40:31.577Z,9.26
2019-05-13T18:43:03.263Z,9.17
2019-05-13T18:45:36.597Z,9.16
2019-05-13T18:48:08.573Z,9.20
2019-05-13T18:50:41.963Z,9.22
2019-05-13T18:53:14.723Z,9.14
2019-05-13T18:55:46.853Z,9.10
2019-05-13T18:58:18.985Z,9.13
2019-05-13T19:00:52.229Z,9.08
2019-05-13T19:03:24.603Z,9.06
2019-05-13T19:05:56.798Z,8.96
2019-05-13T19:08:28.805Z,8.90
2019-05-13T19:11:01.337Z,8.89
2019-05-13T19:13:33.591Z,8.88
2019-05-13T19:16:05.947Z,8.85
2019-05-13T19:18:38.518Z,8.80
2019-05-13T19:21:10.904Z,8.88
2019-05-13T19:23:43.111Z,8.88
2019-05-13T19:26:15.133Z,8.76
2019-05-13T19:28:47.317Z,8.67
2019-05-13T19:31:19.284Z,8.71
2019-05-13T19:33:52.107Z,8.72
2019-05-13T19:36:24.393Z,8.76
2019-05-13T19:38:56.373Z,8.69
2019-05-13T19:41:28.365Z,8.60
2019-05-13T19:44:01.609Z,8.49
2019-05-13T19:46:33.853Z,8.47
2019-05-13T19:49:06.305Z,8.53
2019-05-13T19:51:38.275Z,8.61
2019-05-13T19:54:11.733Z,8.68
2019-05-13T19:56:44.010Z,8.66
2019-05-13T19:59:16.039Z,8.65
2019-05-13T20:01:48.100Z,8.58
2019-05-13T20:04:21.864Z,8.47
2019-05-13T20:06:53.995Z,8.35
2019-05-13T20:09:26.013Z,8.27
2019-05-13T20:11:58.009Z,8.20
2019-05-13T20:14:30.408Z,8.13
2019-05-13T20:17:02.463Z,8.04
2019-05-13T20:19:46.476Z,7.95
2019-05-13T20:22:08.157Z,7.88
2019-05-13T20:24:41.943Z,7.83
2019-05-13T20:27:14.286Z,7.86
2019-05-13T20:29:51.189Z,7.83
2019-05-13T20:32:23.042Z,7.72
2019-05-13T20:34:55.113Z,7.68
2019-05-13T20:37:27.111Z,7.68
2019-05-13T20:39:59.154Z,7.57
2019-05-13T20:42:31.318Z,7.46
2019-05-13T20:45:03.390Z,7.48
2019-05-13T20:47:35.325Z,7.38
2019-05-13T20:50:08.790Z,7.26
2019-05-13T20:52:42.076Z,7.07
2019-05-13T20:55:14.393Z,6.91
2019-05-13T20:57:46.355Z,6.78
2019-05-13T21:00:18.490Z,6.85
2019-05-13T21:02:51.657Z,6.82
2019-05-13T21:05:23.971Z,6.69
2019-05-13T21:07:56.054Z,6.71
2019-05-13T21:10:28.140Z,6.67
2019-05-13T21:13:01.723Z,6.64
2019-05-13T21:15:33.943Z,6.58
2019-05-13T21:18:05.916Z,6.53
2019-05-13T21:20:38.020Z,6.41
2019-05-13T21:23:11.296Z,6.43
2019-05-13T21:25:43.530Z,6.33
2019-05-13T21:28:15.533Z,6.28
2019-05-13T21:30:47.517Z,6.26
2019-05-13T21:33:21.934Z,6.26
2019-05-13T21:35:53.290Z,6.26
2019-05-13T21:38:25.375Z,6.30
2019-05-13T21:40:57.343Z,6.35
2019-05-13T21:43:29.342Z,6.40
2019-05-13T21:46:02.082Z,6.33
2019-05-13T21:48:34.260Z,6.37
2019-05-13T21:51:06.250Z,6.38
2019-05-13T21:53:38.346Z,6.37
2019-05-13T21:56:12.184Z,6.40
2019-05-13T21:58:43.977Z,6.44
2019-05-13T22:01:16.322Z,6.41
2019-05-13T22:03:48.340Z,6.30
2019-05-13T22:06:21.832Z,6.33
2019-05-13T22:08:53.910Z,6.33
2019-05-13T22:11:25.863Z,6.43
2019-05-13T22:13:57.927Z,6.34
2019-05-13T22:16:31.885Z,6.21
2019-05-13T22:19:03.549Z,6.08
2019-05-13T22:21:36.697Z,6.02
2019-05-13T22:24:08.682Z,6.06
2019-05-13T22:26:42.027Z,6.05
2019-05-13T22:29:14.382Z,5.96
2019-05-13T22:31:47.292Z,5.98
2019-05-13T22:34:21.213Z,6.01
2019-05-13T22:36:52.981Z,5.93
2019-05-13T22:39:24.986Z,5.98
2019-05-13T22:41:58.024Z,5.99
2019-05-13T22:44:32.255Z,5.99
2019-05-13T22:47:03.958Z,6.04
2019-05-13T22:49:35.900Z,6.07
2019-05-13T22:52:08.081Z,6.23
2019-05-13T22:54:41.191Z,6.15
2019-05-13T22:57:13.474Z,6.02
2019-05-13T22:59:45.446Z,6.08
2019-05-13T23:02:17.586Z,6.01
2019-05-13T23:04:51.182Z,6.01
2019-05-13T23:07:23.559Z,5.94
2019-05-13T23:09:55.539Z,5.92
2019-05-13T23:12:27.546Z,5.98
2019-05-13T23:15:01.327Z,5.99
2019-05-13T23:17:33.109Z,6.06
2019-05-13T23:20:05.600Z,6.08
2019-05-13T23:22:37.648Z,6.04
2019-05-13T23:25:12.013Z,6.03
2019-05-13T23:27:43.412Z,5.99
2019-05-13T23:30:15.412Z,5.96
2019-05-13T23:32:47.422Z,5.98
2019-05-13T23:35:21.641Z,6.02
2019-05-13T23:37:53.807Z,6.06
2019-05-13T23:40:25.908Z,6.14
2019-05-13T23:42:57.930Z,6.08
2019-05-13T23:45:31.243Z,5.98
2019-05-13T23:48:03.444Z,5.86
2019-05-13T23:50:35.465Z,5.91
2019-05-13T23:53:07.384Z,6.04
2019-05-13T23:55:41.278Z,6.12
2019-05-13T23:58:12.991Z,6.16
